Rayle, Georgia
Current Conditions -  °F | °C
As of 2:35 PM on Monday 20 Oct 2014 (Local Time) from KIIY Reporting Station
Scattered Clouds Scattered Clouds  
Wind Chill: 22°   Ceiling: Unl
Heat Index: 22°   Visibility: 10mi
Dew Point: 13°   Wind: 0mph
Humidity: 57%   Direction: NA
Pressure: 30.04"   Gusts: NA
Location:  33.79°N, 82.9°W
Report Text: KIIY 201835Z AUTO 00000KT 10SM SCT043 22/13 A3004 RMK AO2
Loading
Personal Weather Stations






























Interactive Weather Map
Tropical Storm Tracking
New forecast layout! Learn more

10-Day Weather Forecast

Advertisements
Track Severe Weather on mobile